createdAt,value
2023-11-30T00:00:45.345Z,5.53
2023-11-30T00:03:12.911Z,5.15
2023-11-30T00:05:41.826Z,5.43
2023-11-30T00:08:09.358Z,5.40
2023-11-30T00:10:36.880Z,4.57
2023-11-30T00:13:05.016Z,5.13
2023-11-30T00:15:32.843Z,4.90
2023-11-30T00:18:00.478Z,5.18
2023-11-30T00:20:28.062Z,5.13
2023-11-30T00:22:56.934Z,4.55
2023-11-30T00:25:24.487Z,5.47
2023-11-30T00:27:52.493Z,4.65
2023-11-30T00:30:20.068Z,4.68
2023-11-30T00:32:47.708Z,4.53
2023-11-30T00:35:15.375Z,5.18
2023-11-30T00:37:42.921Z,4.78
2023-11-30T00:40:12.399Z,4.43
2023-11-30T00:42:40.041Z,4.28
2023-11-30T00:45:09.085Z,4.57
2023-11-30T00:50:04.462Z,4.38
2023-11-30T00:52:31.963Z,4.40
2023-11-30T00:54:59.455Z,4.53
2023-11-30T00:57:28.417Z,4.75
2023-11-30T01:02:23.515Z,4.30
2023-11-30T01:04:51.042Z,4.40
2023-11-30T01:07:18.568Z,4.30
2023-11-30T01:09:46.077Z,4.40
2023-11-30T01:12:13.589Z,4.13
2023-11-30T01:14:43.352Z,4.28
2023-11-30T01:17:10.887Z,4.18
2023-11-30T01:19:38.367Z,4.30
2023-11-30T01:22:07.799Z,3.83
2023-11-30T01:24:35.334Z,3.70
2023-11-30T01:27:03.172Z,4.03
2023-11-30T01:29:30.645Z,3.92
2023-11-30T01:31:59.504Z,4.18
2023-11-30T01:34:27.029Z,4.35
2023-11-30T01:36:54.561Z,3.92
2023-11-30T01:39:22.148Z,4.25
2023-11-30T01:41:49.782Z,3.58
2023-11-30T01:44:17.334Z,3.72
2023-11-30T01:46:44.877Z,3.78
2023-11-30T01:49:13.787Z,3.15
2023-11-30T01:51:42.208Z,3.53
2023-11-30T01:54:09.757Z,3.42
2023-11-30T01:56:37.441Z,3.75
2023-11-30T01:59:04.983Z,3.50
2023-11-30T02:01:32.785Z,3.50
2023-11-30T02:04:00.453Z,3.50
2023-11-30T02:06:29.315Z,3.60
2023-11-30T02:08:56.867Z,3.58
2023-11-30T02:11:24.394Z,3.13
2023-11-30T02:13:51.983Z,3.35
2023-11-30T02:16:19.663Z,3.22
2023-11-30T02:18:47.244Z,3.42
2023-11-30T02:21:14.846Z,3.08
2023-11-30T02:23:43.796Z,3.33
2023-11-30T02:26:11.976Z,3.53
2023-11-30T02:28:39.523Z,3.20
2023-11-30T02:31:07.133Z,2.80
2023-11-30T02:33:34.634Z,3.47
2023-11-30T02:36:02.178Z,3.33
2023-11-30T02:38:29.750Z,3.20
2023-11-30T02:40:58.589Z,3.20
2023-11-30T02:43:29.123Z,3.05
2023-11-30T02:45:56.670Z,3.17
2023-11-30T02:48:24.229Z,3.08
2023-11-30T02:50:51.794Z,2.80
2023-11-30T02:53:19.299Z,3.35
2023-11-30T02:55:46.827Z,3.35
2023-11-30T02:58:15.747Z,2.97
2023-11-30T03:03:10.790Z,3.17
2023-11-30T03:05:38.335Z,3.17
2023-11-30T03:08:06.368Z,3.22
2023-11-30T03:10:33.952Z,3.40
2023-11-30T03:13:01.484Z,3.15
2023-11-30T03:15:31.977Z,3.00
2023-11-30T03:17:59.740Z,3.40
2023-11-30T03:20:27.362Z,2.65
2023-11-30T03:22:54.893Z,2.60
2023-11-30T03:25:22.520Z,2.63
2023-11-30T03:27:50.018Z,2.83
2023-11-30T03:30:17.590Z,3.35
2023-11-30T03:32:46.706Z,2.95
2023-11-30T03:35:14.355Z,2.70
2023-11-30T03:37:43.923Z,2.80
2023-11-30T03:40:12.428Z,2.85
2023-11-30T03:42:39.999Z,2.92
2023-11-30T03:45:08.223Z,2.88
2023-11-30T03:47:35.900Z,2.60
2023-11-30T03:50:05.139Z,2.50
2023-11-30T03:52:32.730Z,2.22
2023-11-30T03:55:00.298Z,2.70
2023-11-30T03:57:27.863Z,2.72
2023-11-30T03:59:55.438Z,2.42
2023-11-30T04:02:23.048Z,2.35
2023-11-30T04:04:50.621Z,2.70
2023-11-30T04:07:19.478Z,2.33
2023-11-30T04:09:48.540Z,2.22
2023-11-30T04:12:16.054Z,2.50
2023-11-30T04:14:43.548Z,2.10
2023-11-30T04:17:11.681Z,2.13
2023-11-30T04:19:39.206Z,2.05
2023-11-30T04:22:06.767Z,2.30
2023-11-30T04:24:35.717Z,2.38
2023-11-30T04:27:03.584Z,1.90
2023-11-30T04:29:31.134Z,2.15
2023-11-30T04:31:58.695Z,2.28
2023-11-30T04:34:26.201Z,2.13
2023-11-30T04:36:53.740Z,2.10
2023-11-30T04:39:21.862Z,2.30
2023-11-30T04:41:51.038Z,2.05
2023-11-30T04:44:20.190Z,2.03
2023-11-30T04:46:49.078Z,1.77
2023-11-30T04:49:16.624Z,1.70
2023-11-30T04:51:44.143Z,1.95
2023-11-30T04:54:11.675Z,1.90
2023-11-30T04:56:39.447Z,1.65
2023-11-30T04:59:08.319Z,1.70
2023-11-30T05:01:37.290Z,2.10
2023-11-30T05:04:05.234Z,1.73
2023-11-30T05:06:32.946Z,2.10
2023-11-30T05:09:00.474Z,2.63
2023-11-30T05:11:28.017Z,1.67
2023-11-30T05:13:55.616Z,1.83
2023-11-30T05:16:24.543Z,2.05
2023-11-30T05:21:19.502Z,1.75
2023-11-30T05:23:47.019Z,1.70
2023-11-30T05:26:14.614Z,1.90
2023-11-30T05:28:42.344Z,1.90
2023-11-30T05:31:09.987Z,1.88
2023-11-30T05:33:39.350Z,1.52
2023-11-30T05:36:07.746Z,1.85
2023-11-30T05:38:35.237Z,1.70
2023-11-30T05:41:02.822Z,1.60
2023-11-30T05:43:33.613Z,2.35
2023-11-30T05:46:01.988Z,1.65
2023-11-30T05:48:29.565Z,1.60
2023-11-30T05:50:58.523Z,1.50
2023-11-30T05:55:54.204Z,1.80
2023-11-30T05:58:21.717Z,1.50
2023-11-30T06:00:49.301Z,1.42
2023-11-30T06:03:16.905Z,1.75
2023-11-30T06:05:44.490Z,1.60
2023-11-30T06:08:13.320Z,1.50
2023-11-30T06:10:40.853Z,1.60
2023-11-30T06:13:08.975Z,1.55
2023-11-30T06:15:36.634Z,1.77
2023-11-30T06:18:04.383Z,1.42
2023-11-30T06:20:32.106Z,1.70
2023-11-30T06:22:59.587Z,1.90
2023-11-30T06:25:28.441Z,1.65
2023-11-30T06:27:55.985Z,1.90
2023-11-30T06:30:23.513Z,1.90
2023-11-30T06:32:51.049Z,1.83
2023-11-30T06:35:18.606Z,1.60
2023-11-30T06:37:46.190Z,2.00
2023-11-30T06:40:14.378Z,1.70
2023-11-30T06:42:43.294Z,1.70
2023-11-30T06:47:38.735Z,1.80
2023-11-30T06:50:07.925Z,1.80
2023-11-30T06:52:35.435Z,1.55
2023-11-30T06:55:03.760Z,2.17
2023-11-30T06:57:31.352Z,1.70
2023-11-30T07:00:00.389Z,1.92
2023-11-30T07:02:29.202Z,1.58
2023-11-30T07:04:56.900Z,1.90
2023-11-30T07:07:31.481Z,1.98
2023-11-30T07:10:03.819Z,1.90
2023-11-30T07:12:31.426Z,1.65
2023-11-30T07:15:00.536Z,1.88
2023-11-30T07:17:28.122Z,2.00
2023-11-30T07:19:55.645Z,1.52
2023-11-30T07:22:25.737Z,1.73
2023-11-30T07:24:53.418Z,1.80
2023-11-30T07:27:21.036Z,1.80
2023-11-30T07:29:48.712Z,2.38
2023-11-30T07:32:17.842Z,1.63
2023-11-30T07:34:46.871Z,1.42
2023-11-30T07:37:17.172Z,1.63
2023-11-30T07:39:44.865Z,1.83
2023-11-30T07:42:13.360Z,1.40
2023-11-30T07:44:42.075Z,1.30
2023-11-30T07:47:09.674Z,1.38
2023-11-30T07:49:38.688Z,1.50
2023-11-30T07:54:33.821Z,1.80
2023-11-30T07:57:02.081Z,1.70
2023-11-30T07:59:29.756Z,1.70
2023-11-30T08:01:57.299Z,1.40
2023-11-30T08:04:24.950Z,1.70
2023-11-30T08:06:53.864Z,1.70
2023-11-30T08:09:22.280Z,1.63
2023-11-30T08:11:49.861Z,1.60
2023-11-30T08:14:17.474Z,1.45
2023-11-30T08:16:45.006Z,1.70
2023-11-30T08:19:12.585Z,1.50
2023-11-30T08:21:42.050Z,1.70
2023-11-30T08:24:11.023Z,1.48
2023-11-30T08:29:06.024Z,1.50
2023-11-30T08:31:34.694Z,1.60
2023-11-30T08:34:02.448Z,1.60
2023-11-30T08:36:30.047Z,1.80
2023-11-30T08:38:57.554Z,1.70
2023-11-30T08:41:26.408Z,1.50
2023-11-30T08:43:53.927Z,1.50
2023-11-30T08:46:21.575Z,1.70
2023-11-30T08:48:49.183Z,1.55
2023-11-30T08:51:16.822Z,1.50
2023-11-30T08:53:44.432Z,1.40
2023-11-30T08:56:12.877Z,1.30
2023-11-30T08:58:41.769Z,1.60
2023-11-30T09:01:09.529Z,2.00
2023-11-30T09:03:37.148Z,1.50
2023-11-30T09:06:05.202Z,1.73
2023-11-30T09:08:34.692Z,1.65
2023-11-30T09:11:02.210Z,1.80
2023-11-30T09:13:29.714Z,1.80
2023-11-30T09:15:58.684Z,2.22
2023-11-30T09:20:53.629Z,1.67
2023-11-30T09:23:21.142Z,1.90
2023-11-30T09:25:48.650Z,1.73
2023-11-30T09:28:16.203Z,1.45
2023-11-30T09:30:43.860Z,1.73
2023-11-30T09:33:14.365Z,1.75
2023-11-30T09:35:41.944Z,1.60
2023-11-30T09:38:10.698Z,1.70
2023-11-30T09:40:38.248Z,1.67
2023-11-30T09:43:05.821Z,1.85
2023-11-30T09:45:33.403Z,1.70
2023-11-30T09:48:00.950Z,1.83
2023-11-30T09:50:29.820Z,1.83
2023-11-30T09:52:57.338Z,1.58
2023-11-30T09:55:26.592Z,1.58
2023-11-30T09:57:54.204Z,1.63
2023-11-30T10:00:22.358Z,1.77
2023-11-30T10:02:54.432Z,1.80
2023-11-30T10:05:22.285Z,1.63
2023-11-30T10:07:51.203Z,1.90
2023-11-30T10:12:46.139Z,2.03
2023-11-30T10:15:13.982Z,2.10
2023-11-30T10:17:42.692Z,2.50
2023-11-30T10:20:12.526Z,2.22
2023-11-30T10:22:40.553Z,2.10
2023-11-30T10:25:10.260Z,2.28
2023-11-30T10:27:37.983Z,2.63
2023-11-30T10:30:07.668Z,2.53
2023-11-30T10:32:36.710Z,2.30
2023-11-30T10:37:35.023Z,2.53
2023-11-30T10:40:05.012Z,1.85
2023-11-30T10:42:34.931Z,2.58
2023-11-30T10:45:03.364Z,2.35
2023-11-30T10:47:31.380Z,2.05
2023-11-30T10:49:58.948Z,2.13
2023-11-30T10:52:26.899Z,2.10
2023-11-30T10:54:57.125Z,2.03
2023-11-30T10:57:24.642Z,1.67
2023-11-30T10:59:59.622Z,2.10
2023-11-30T11:02:27.242Z,1.92
2023-11-30T11:04:54.873Z,1.90
2023-11-30T11:07:22.483Z,1.75
2023-11-30T11:09:53.043Z,2.45
2023-11-30T11:12:21.585Z,1.98
2023-11-30T11:14:50.314Z,2.00
2023-11-30T11:17:21.525Z,2.55
2023-11-30T11:19:49.070Z,2.63
2023-11-30T11:22:17.764Z,2.22
2023-11-30T11:24:46.130Z,2.15
2023-11-30T11:27:14.020Z,2.22
2023-11-30T11:29:45.038Z,2.40
2023-11-30T11:32:13.260Z,2.28
2023-11-30T11:34:42.127Z,2.25
2023-11-30T11:37:09.637Z,2.70
2023-11-30T11:39:37.285Z,2.47
2023-11-30T11:42:05.236Z,2.53
2023-11-30T11:44:32.770Z,2.53
2023-11-30T11:47:00.778Z,2.35
2023-11-30T11:49:28.341Z,3.00
2023-11-30T11:51:57.275Z,3.10
2023-11-30T11:56:52.927Z,2.45
2023-11-30T11:59:23.651Z,2.63
2023-11-30T12:01:51.683Z,2.58
2023-11-30T12:04:32.142Z,3.60
2023-11-30T12:07:01.430Z,4.13
2023-11-30T12:09:28.998Z,3.50
2023-11-30T12:12:04.525Z,3.60
2023-11-30T12:14:32.032Z,3.03
2023-11-30T12:17:05.554Z,2.97
2023-11-30T12:19:33.058Z,3.40
2023-11-30T12:22:02.014Z,2.95
2023-11-30T12:26:56.970Z,3.30
2023-11-30T12:29:24.490Z,3.15
2023-11-30T12:31:53.538Z,2.92
2023-11-30T12:34:22.424Z,3.17
2023-11-30T12:36:51.573Z,3.30
2023-11-30T12:39:21.751Z,3.13
2023-11-30T12:44:17.203Z,3.40
2023-11-30T12:46:45.450Z,3.38
2023-11-30T12:49:13.088Z,2.90
2023-11-30T12:51:40.701Z,3.15
2023-11-30T12:54:08.903Z,3.17
2023-11-30T12:56:37.823Z,3.17
2023-11-30T12:59:05.399Z,2.45
2023-11-30T13:01:32.954Z,2.58
2023-11-30T13:04:01.522Z,2.58
2023-11-30T13:06:29.247Z,2.92
2023-11-30T13:08:56.776Z,3.00
2023-11-30T13:11:25.011Z,3.08
2023-11-30T13:13:55.912Z,2.95
2023-11-30T13:16:23.597Z,3.47
2023-11-30T13:18:51.298Z,3.40
2023-11-30T13:21:18.946Z,2.90
2023-11-30T13:23:46.493Z,3.38
2023-11-30T13:26:14.080Z,2.80
2023-11-30T13:28:47.691Z,3.13
2023-11-30T13:31:21.179Z,3.08
2023-11-30T13:33:48.854Z,2.60
2023-11-30T13:36:16.872Z,2.78
2023-11-30T13:38:44.420Z,2.90
2023-11-30T13:41:11.994Z,3.03
2023-11-30T13:43:39.665Z,3.20
2023-11-30T13:46:13.870Z,2.90
2023-11-30T13:48:42.844Z,3.10
2023-11-30T13:53:39.347Z,2.72
2023-11-30T13:56:07.806Z,2.97
2023-11-30T13:58:35.317Z,3.20
2023-11-30T14:01:02.896Z,2.95
2023-11-30T14:03:30.570Z,3.00
2023-11-30T14:05:59.481Z,3.10
2023-11-30T14:08:27.728Z,2.95
2023-11-30T14:10:55.310Z,2.83
2023-11-30T14:13:22.821Z,3.00
2023-11-30T14:15:50.381Z,2.90
2023-11-30T14:18:18.334Z,2.88
2023-11-30T14:20:45.950Z,2.92
2023-11-30T14:23:14.895Z,2.90
2023-11-30T14:28:12.812Z,3.15
2023-11-30T14:30:41.625Z,2.67
2023-11-30T14:33:12.331Z,2.88
2023-11-30T14:35:41.553Z,3.15
2023-11-30T14:38:09.472Z,3.47
2023-11-30T14:40:38.648Z,3.40
2023-11-30T14:43:06.977Z,3.30
2023-11-30T14:45:34.584Z,3.08
2023-11-30T14:48:02.250Z,2.92
2023-11-30T14:50:29.803Z,3.25
2023-11-30T14:52:57.391Z,3.25
2023-11-30T14:55:24.884Z,3.10
2023-11-30T14:57:55.128Z,3.80
2023-11-30T15:00:24.279Z,3.90
2023-11-30T15:02:53.769Z,3.55
2023-11-30T15:05:21.505Z,3.50
2023-11-30T15:07:49.093Z,3.80
2023-11-30T15:10:18.239Z,3.28
2023-11-30T15:12:45.847Z,3.33
2023-11-30T15:15:16.482Z,3.13
2023-11-30T15:17:45.082Z,3.00
2023-11-30T15:20:13.848Z,3.47
2023-11-30T15:22:41.469Z,3.05
2023-11-30T15:25:11.182Z,3.30
2023-11-30T15:27:38.843Z,3.05
2023-11-30T15:30:08.898Z,3.20
2023-11-30T15:32:37.827Z,3.38
2023-11-30T15:37:36.133Z,3.22
2023-11-30T15:40:06.514Z,3.22
2023-11-30T15:42:34.549Z,3.40
2023-11-30T15:45:02.123Z,2.75
2023-11-30T15:47:29.701Z,3.13
2023-11-30T15:49:59.048Z,3.28
2023-11-30T15:52:26.742Z,3.35
2023-11-30T15:54:54.501Z,2.97
2023-11-30T15:57:23.936Z,3.33
2023-11-30T15:59:51.478Z,3.50
2023-11-30T16:02:19.049Z,3.42
2023-11-30T16:04:46.744Z,3.05
2023-11-30T16:07:15.656Z,3.13
2023-11-30T16:12:12.602Z,2.95
2023-11-30T16:14:40.963Z,2.90
2023-11-30T16:17:09.032Z,2.90
2023-11-30T16:19:36.635Z,3.10
2023-11-30T16:22:04.741Z,2.80
2023-11-30T16:24:33.713Z,3.15
2023-11-30T16:33:20.417Z,3.03
2023-11-30T16:35:48.676Z,3.70
2023-11-30T16:38:16.229Z,3.25
2023-11-30T16:40:45.137Z,3.35
2023-11-30T16:43:12.698Z,3.72
2023-11-30T16:45:40.297Z,3.17
2023-11-30T16:48:07.865Z,3.60
2023-11-30T16:50:35.516Z,3.78
2023-11-30T16:53:04.795Z,4.05
2023-11-30T16:55:32.799Z,3.75
2023-11-30T16:58:01.767Z,3.90
2023-11-30T17:02:57.111Z,3.95
2023-11-30T17:05:24.797Z,3.72
2023-11-30T17:07:52.549Z,3.65
2023-11-30T17:10:20.064Z,3.95
2023-11-30T17:12:47.642Z,4.03
2023-11-30T17:15:18.221Z,3.85
2023-11-30T17:17:46.998Z,3.80
2023-11-30T17:20:14.706Z,4.20
2023-11-30T17:22:42.741Z,3.92
2023-11-30T17:25:10.694Z,4.00
2023-11-30T17:27:38.271Z,4.15
2023-11-30T17:30:06.454Z,4.47
2023-11-30T17:32:35.464Z,4.20
2023-11-30T17:35:03.298Z,4.28
2023-11-30T17:37:31.080Z,3.90
2023-11-30T17:39:58.702Z,4.20
2023-11-30T17:42:26.243Z,4.10
2023-11-30T17:44:53.805Z,4.07
2023-11-30T17:47:21.437Z,4.50
2023-11-30T17:49:50.330Z,5.13
2023-11-30T17:54:45.289Z,3.95
2023-11-30T17:57:12.803Z,3.78
2023-11-30T17:59:40.301Z,3.65
2023-11-30T18:02:07.916Z,3.90
2023-11-30T18:04:35.745Z,3.70
2023-11-30T18:07:08.523Z,3.70
2023-11-30T18:09:35.888Z,3.83
2023-11-30T18:12:03.407Z,3.42
2023-11-30T18:14:32.974Z,3.03
2023-11-30T18:17:00.789Z,3.80
2023-11-30T18:19:28.360Z,3.75
2023-11-30T18:21:55.951Z,3.97
2023-11-30T18:24:30.634Z,3.20
2023-11-30T18:26:58.572Z,3.38
2023-11-30T18:29:26.217Z,3.85
2023-11-30T18:31:53.845Z,3.42
2023-11-30T18:34:21.464Z,3.50
2023-11-30T18:36:49.058Z,3.80
2023-11-30T18:39:16.806Z,3.55
2023-11-30T18:41:45.755Z,3.35
2023-11-30T18:46:40.785Z,3.22
2023-11-30T18:49:08.619Z,3.30
2023-11-30T18:51:36.901Z,3.53
2023-11-30T18:54:04.660Z,3.63
2023-11-30T18:56:32.311Z,3.22
2023-11-30T18:59:01.711Z,3.50
2023-11-30T19:01:30.504Z,3.75
2023-11-30T19:03:58.401Z,3.45
2023-11-30T19:06:25.989Z,3.42
2023-11-30T19:08:54.125Z,3.65
2023-11-30T19:11:22.497Z,3.30
2023-11-30T19:13:50.084Z,4.10
2023-11-30T19:16:19.194Z,3.60
2023-11-30T19:18:48.589Z,3.53
2023-11-30T19:21:16.840Z,3.50
2023-11-30T19:23:46.131Z,3.65
2023-11-30T19:26:13.964Z,3.80
2023-11-30T19:28:41.556Z,3.50
2023-11-30T19:31:09.367Z,3.25
2023-11-30T19:33:38.321Z,3.38
2023-11-30T19:38:33.844Z,3.50
2023-11-30T19:41:01.541Z,3.67
2023-11-30T19:43:29.159Z,3.05
2023-11-30T19:45:59.745Z,3.13
2023-11-30T19:48:28.840Z,3.75
2023-11-30T19:50:57.807Z,3.40
2023-11-30T19:55:52.873Z,3.45
2023-11-30T19:58:20.438Z,3.67
2023-11-30T20:00:49.263Z,3.22
2023-11-30T20:03:16.869Z,3.47
2023-11-30T20:05:44.550Z,3.33
2023-11-30T20:08:13.442Z,3.10
2023-11-30T20:13:08.313Z,3.20
2023-11-30T20:15:36.029Z,3.72
2023-11-30T20:18:05.076Z,3.95
2023-11-30T20:20:32.661Z,3.50
2023-11-30T20:23:01.393Z,3.33
2023-11-30T20:25:30.285Z,3.30
2023-11-30T20:30:26.283Z,3.25
2023-11-30T20:32:53.916Z,3.17
2023-11-30T20:35:21.476Z,3.13
2023-11-30T20:37:50.233Z,3.42
2023-11-30T20:40:17.838Z,3.25
2023-11-30T20:42:46.850Z,3.28
2023-11-30T20:45:15.805Z,3.97
2023-11-30T20:50:10.810Z,3.58
2023-11-30T20:52:38.367Z,3.72
2023-11-30T20:55:06.803Z,3.60
2023-11-30T20:57:36.147Z,3.42
2023-11-30T21:00:07.144Z,3.28
2023-11-30T21:02:35.031Z,3.20
2023-11-30T21:05:02.726Z,3.15
2023-11-30T21:07:30.362Z,3.75
2023-11-30T21:09:58.105Z,4.05
2023-11-30T21:12:26.026Z,3.10
2023-11-30T21:14:53.578Z,3.72
2023-11-30T21:17:22.469Z,3.50
2023-11-30T21:19:50.014Z,2.95
2023-11-30T21:22:17.596Z,3.17
2023-11-30T21:24:45.950Z,3.17
2023-11-30T21:27:13.796Z,3.92
2023-11-30T21:29:41.767Z,3.58
2023-11-30T21:32:10.012Z,3.63
2023-11-30T21:34:40.842Z,3.65
2023-11-30T21:37:08.497Z,4.00
2023-11-30T21:39:36.231Z,3.83
2023-11-30T21:42:03.929Z,3.33
2023-11-30T21:44:31.468Z,3.90
2023-11-30T21:46:59.136Z,3.75
2023-11-30T21:49:26.652Z,4.20
2023-11-30T21:51:55.603Z,4.15
2023-11-30T21:56:50.586Z,3.80
2023-11-30T21:59:18.555Z,4.43
2023-11-30T22:01:47.222Z,3.85
2023-11-30T22:04:15.022Z,4.05
2023-11-30T22:06:44.374Z,4.03
2023-11-30T22:09:13.288Z,4.78
2023-11-30T22:14:11.441Z,3.90
2023-11-30T22:16:40.926Z,4.38
2023-11-30T22:19:08.724Z,3.70
2023-11-30T22:21:36.355Z,3.85
2023-11-30T22:24:03.898Z,3.90
2023-11-30T22:26:32.752Z,4.25
2023-11-30T22:29:02.791Z,4.32
2023-11-30T22:31:34.376Z,3.90
2023-11-30T22:34:02.288Z,4.07
2023-11-30T22:36:29.879Z,3.67
2023-11-30T22:38:58.215Z,4.65
2023-11-30T22:41:25.824Z,4.38
2023-11-30T22:43:54.705Z,3.85
2023-11-30T22:48:51.008Z,5.07
2023-11-30T22:51:18.946Z,4.78
2023-11-30T22:53:46.664Z,4.50
2023-11-30T22:56:18.101Z,4.80
2023-11-30T22:58:45.802Z,4.30
2023-11-30T23:01:15.319Z,5.20
2023-11-30T23:03:44.428Z,5.13
2023-11-30T23:06:12.243Z,5.40
2023-11-30T23:08:39.803Z,5.00
2023-11-30T23:11:08.767Z,5.30
2023-11-30T23:16:03.906Z,6.05
2023-11-30T23:18:33.086Z,5.03
2023-11-30T23:21:00.730Z,5.85
2023-11-30T23:23:28.329Z,6.35
2023-11-30T23:25:55.892Z,5.95
2023-11-30T23:28:23.440Z,6.10
2023-11-30T23:30:51.004Z,6.00
2023-11-30T23:33:18.519Z,6.22
2023-11-30T23:35:47.459Z,6.18
2023-11-30T23:40:42.544Z,6.00
2023-11-30T23:43:10.124Z,6.15
2023-11-30T23:45:37.731Z,5.78
2023-11-30T23:48:05.944Z,5.88
2023-11-30T23:50:33.469Z,5.60
2023-11-30T23:53:02.403Z,5.85
2023-11-30T23:57:57.851Z,6.32
